sensor_id;sensor_type;location;lat;lon;timestamp;P1;durP1;ratioP1;P2;durP2;ratioP2
44696;SDS011;57264;47.480;19.354;2023-05-19T12:43:54;2.90;;;2.17;;
44696;SDS011;57264;47.480;19.354;2023-05-19T12:46:20;2.30;;;1.90;;
44696;SDS011;57264;47.480;19.354;2023-05-19T12:48:46;6.20;;;1.73;;
44696;SDS011;57264;47.480;19.354;2023-05-19T12:51:16;2.93;;;2.30;;
44696;SDS011;57264;47.480;19.354;2023-05-19T12:53:45;4.03;;;1.67;;
44696;SDS011;57264;47.480;19.354;2023-05-19T12:56:14;4.73;;;2.50;;
44696;SDS011;57264;47.480;19.354;2023-05-19T12:58:40;3.30;;;1.80;;
44696;SDS011;57264;47.480;19.354;2023-05-19T13:01:06;4.40;;;1.87;;
44696;SDS011;57264;47.480;19.354;2023-05-19T13:03:39;3.13;;;1.70;;
44696;SDS011;57264;47.480;19.354;2023-05-19T13:06:08;3.40;;;1.90;;
44696;SDS011;57264;47.480;19.354;2023-05-19T13:08:35;2.57;;;1.57;;
44696;SDS011;57264;47.480;19.354;2023-05-19T13:11:02;1.83;;;1.67;;
44696;SDS011;57264;47.480;19.354;2023-05-19T13:13:28;3.97;;;1.73;;
44696;SDS011;57264;47.480;19.354;2023-05-19T13:15:53;3.87;;;1.67;;
44696;SDS011;57264;47.480;19.354;2023-05-19T13:18:19;1.87;;;1.77;;
44696;SDS011;57264;47.480;19.354;2023-05-19T13:20:45;3.20;;;1.70;;
44696;SDS011;57264;47.480;19.354;2023-05-19T13:23:13;1.63;;;1.50;;
44696;SDS011;57264;47.480;19.354;2023-05-19T13:25:38;2.50;;;1.90;;
44696;SDS011;57264;47.480;19.354;2023-05-19T13:28:06;3.17;;;2.13;;
44696;SDS011;57264;47.480;19.354;2023-05-19T13:30:32;3.03;;;1.70;;
44696;SDS011;57264;47.480;19.354;2023-05-19T13:32:58;3.50;;;2.30;;
44696;SDS011;57264;47.480;19.354;2023-05-19T13:35:24;3.80;;;2.10;;
44696;SDS011;57264;47.480;19.354;2023-05-19T13:37:50;4.17;;;1.80;;
44696;SDS011;57264;47.480;19.354;2023-05-19T13:40:15;5.63;;;1.97;;
44696;SDS011;57264;47.480;19.354;2023-05-19T13:42:41;4.27;;;2.00;;
44696;SDS011;57264;47.480;19.354;2023-05-19T13:45:07;4.23;;;2.30;;
44696;SDS011;57264;47.480;19.354;2023-05-19T13:47:34;4.63;;;2.13;;
44696;SDS011;57264;47.480;19.354;2023-05-19T13:50:01;4.87;;;2.07;;
44696;SDS011;57264;47.480;19.354;2023-05-19T13:52:28;2.80;;;1.90;;
44696;SDS011;57264;47.480;19.354;2023-05-19T13:54:54;4.27;;;2.20;;
44696;SDS011;57264;47.480;19.354;2023-05-19T13:57:20;2.53;;;1.90;;
44696;SDS011;57264;47.480;19.354;2023-05-19T13:59:47;3.00;;;2.50;;
44696;SDS011;57264;47.480;19.354;2023-05-19T14:02:13;2.67;;;2.40;;
44696;SDS011;57264;47.480;19.354;2023-05-19T14:04:38;3.70;;;1.90;;
44696;SDS011;57264;47.480;19.354;2023-05-19T14:07:05;4.40;;;2.10;;
44696;SDS011;57264;47.480;19.354;2023-05-19T14:09:31;2.30;;;2.10;;
44696;SDS011;57264;47.480;19.354;2023-05-19T14:11:57;2.67;;;2.07;;
44696;SDS011;57264;47.480;19.354;2023-05-19T14:14:22;5.63;;;2.20;;
44696;SDS011;57264;47.480;19.354;2023-05-19T14:16:49;2.70;;;2.37;;
44696;SDS011;57264;47.480;19.354;2023-05-19T14:19:14;3.40;;;2.17;;
44696;SDS011;57264;47.480;19.354;2023-05-19T14:21:40;3.30;;;2.30;;
44696;SDS011;57264;47.480;19.354;2023-05-19T14:24:05;2.70;;;2.33;;
44696;SDS011;57264;47.480;19.354;2023-05-19T14:26:31;4.83;;;2.50;;
44696;SDS011;57264;47.480;19.354;2023-05-19T14:28:57;2.53;;;2.30;;
44696;SDS011;57264;47.480;19.354;2023-05-19T14:31:22;3.80;;;2.37;;
44696;SDS011;57264;47.480;19.354;2023-05-19T14:33:48;2.17;;;1.97;;
44696;SDS011;57264;47.480;19.354;2023-05-19T14:36:14;4.87;;;2.27;;
44696;SDS011;57264;47.480;19.354;2023-05-19T14:38:39;5.63;;;2.40;;
44696;SDS011;57264;47.480;19.354;2023-05-19T14:41:05;6.90;;;2.70;;
44696;SDS011;57264;47.480;19.354;2023-05-19T14:43:31;4.17;;;2.70;;
44696;SDS011;57264;47.480;19.354;2023-05-19T14:45:57;3.70;;;2.27;;
44696;SDS011;57264;47.480;19.354;2023-05-19T14:48:22;3.00;;;2.07;;
44696;SDS011;57264;47.480;19.354;2023-05-19T14:50:48;3.90;;;2.37;;
44696;SDS011;57264;47.480;19.354;2023-05-19T14:53:14;5.03;;;2.60;;
44696;SDS011;57264;47.480;19.354;2023-05-19T14:55:40;4.23;;;2.20;;
44696;SDS011;57264;47.480;19.354;2023-05-19T14:58:05;4.80;;;2.60;;
44696;SDS011;57264;47.480;19.354;2023-05-19T15:00:31;2.90;;;2.10;;
44696;SDS011;57264;47.480;19.354;2023-05-19T15:02:57;3.03;;;2.17;;
44696;SDS011;57264;47.480;19.354;2023-05-19T15:05:22;5.10;;;2.47;;
44696;SDS011;57264;47.480;19.354;2023-05-19T15:07:48;4.03;;;2.23;;
44696;SDS011;57264;47.480;19.354;2023-05-19T15:10:14;4.37;;;2.50;;
44696;SDS011;57264;47.480;19.354;2023-05-19T15:12:41;4.53;;;2.40;;
44696;SDS011;57264;47.480;19.354;2023-05-19T15:15:06;5.27;;;2.23;;
44696;SDS011;57264;47.480;19.354;2023-05-19T15:17:32;8.20;;;2.27;;
44696;SDS011;57264;47.480;19.354;2023-05-19T15:19:58;3.00;;;2.23;;
44696;SDS011;57264;47.480;19.354;2023-05-19T15:22:24;5.83;;;2.20;;
44696;SDS011;57264;47.480;19.354;2023-05-19T15:24:49;3.13;;;1.90;;
44696;SDS011;57264;47.480;19.354;2023-05-19T15:27:15;2.00;;;1.60;;
44696;SDS011;57264;47.480;19.354;2023-05-19T15:29:40;5.00;;;2.10;;
44696;SDS011;57264;47.480;19.354;2023-05-19T15:32:06;8.20;;;2.57;;
44696;SDS011;57264;47.480;19.354;2023-05-19T15:34:32;5.10;;;2.50;;
44696;SDS011;57264;47.480;19.354;2023-05-19T15:36:57;5.23;;;2.23;;
44696;SDS011;57264;47.480;19.354;2023-05-19T15:39:23;7.53;;;2.30;;
44696;SDS011;57264;47.480;19.354;2023-05-19T15:41:49;5.90;;;2.40;;
44696;SDS011;57264;47.480;19.354;2023-05-19T15:44:15;4.63;;;2.50;;
44696;SDS011;57264;47.480;19.354;2023-05-19T15:46:41;5.47;;;2.70;;
44696;SDS011;57264;47.480;19.354;2023-05-19T15:49:06;2.47;;;1.97;;
44696;SDS011;57264;47.480;19.354;2023-05-19T15:51:32;2.77;;;2.43;;
44696;SDS011;57264;47.480;19.354;2023-05-19T15:53:58;3.90;;;2.30;;
44696;SDS011;57264;47.480;19.354;2023-05-19T15:56:24;6.03;;;2.17;;
44696;SDS011;57264;47.480;19.354;2023-05-19T15:58:50;5.10;;;2.73;;
44696;SDS011;57264;47.480;19.354;2023-05-19T16:01:15;5.67;;;2.93;;
44696;SDS011;57264;47.480;19.354;2023-05-19T16:03:42;4.20;;;2.37;;
44696;SDS011;57264;47.480;19.354;2023-05-19T16:06:07;2.67;;;2.43;;
44696;SDS011;57264;47.480;19.354;2023-05-19T16:08:33;5.70;;;2.57;;
44696;SDS011;57264;47.480;19.354;2023-05-19T16:10:58;5.43;;;2.77;;
44696;SDS011;57264;47.480;19.354;2023-05-19T16:13:24;7.83;;;2.47;;
44696;SDS011;57264;47.480;19.354;2023-05-19T16:15:50;8.23;;;2.90;;
44696;SDS011;57264;47.480;19.354;2023-05-19T16:18:16;4.23;;;2.30;;
44696;SDS011;57264;47.480;19.354;2023-05-19T16:20:42;8.80;;;3.07;;
44696;SDS011;57264;47.480;19.354;2023-05-19T16:23:08;4.93;;;3.50;;
44696;SDS011;57264;47.480;19.354;2023-05-19T16:25:33;4.53;;;3.50;;
44696;SDS011;57264;47.480;19.354;2023-05-19T16:27:59;3.77;;;3.00;;
44696;SDS011;57264;47.480;19.354;2023-05-19T16:30:24;5.77;;;3.10;;
44696;SDS011;57264;47.480;19.354;2023-05-19T16:32:51;4.80;;;2.80;;
44696;SDS011;57264;47.480;19.354;2023-05-19T16:35:18;3.43;;;2.80;;
44696;SDS011;57264;47.480;19.354;2023-05-19T16:37:44;5.53;;;3.40;;
44696;SDS011;57264;47.480;19.354;2023-05-19T16:40:10;6.03;;;3.00;;
44696;SDS011;57264;47.480;19.354;2023-05-19T16:42:36;7.40;;;2.97;;
44696;SDS011;57264;47.480;19.354;2023-05-19T16:45:01;8.53;;;2.77;;
44696;SDS011;57264;47.480;19.354;2023-05-19T16:47:27;3.57;;;2.90;;
44696;SDS011;57264;47.480;19.354;2023-05-19T16:49:53;3.77;;;3.00;;
44696;SDS011;57264;47.480;19.354;2023-05-19T16:52:18;9.53;;;6.10;;
44696;SDS011;57264;47.480;19.354;2023-05-19T16:54:44;14.13;;;6.23;;
44696;SDS011;57264;47.480;19.354;2023-05-19T16:57:10;12.83;;;6.60;;
44696;SDS011;57264;47.480;19.354;2023-05-19T16:59:38;7.03;;;4.07;;
44696;SDS011;57264;47.480;19.354;2023-05-19T17:02:03;6.50;;;2.80;;
44696;SDS011;57264;47.480;19.354;2023-05-19T17:04:29;5.13;;;3.10;;
44696;SDS011;57264;47.480;19.354;2023-05-19T17:06:55;6.97;;;2.97;;
44696;SDS011;57264;47.480;19.354;2023-05-19T17:09:20;7.67;;;3.20;;
44696;SDS011;57264;47.480;19.354;2023-05-19T17:11:49;5.60;;;3.03;;
44696;SDS011;57264;47.480;19.354;2023-05-19T17:14:18;2.93;;;2.53;;
44696;SDS011;57264;47.480;19.354;2023-05-19T17:16:44;6.03;;;3.20;;
44696;SDS011;57264;47.480;19.354;2023-05-19T17:19:09;5.53;;;2.50;;
44696;SDS011;57264;47.480;19.354;2023-05-19T17:21:35;6.30;;;2.40;;
44696;SDS011;57264;47.480;19.354;2023-05-19T17:24:01;4.37;;;2.70;;
44696;SDS011;57264;47.480;19.354;2023-05-19T17:26:27;6.80;;;3.10;;
44696;SDS011;57264;47.480;19.354;2023-05-19T17:28:52;3.87;;;2.80;;
44696;SDS011;57264;47.480;19.354;2023-05-19T17:31:18;6.23;;;3.00;;
44696;SDS011;57264;47.480;19.354;2023-05-19T17:33:44;6.97;;;3.20;;
44696;SDS011;57264;47.480;19.354;2023-05-19T17:36:10;8.17;;;3.30;;
44696;SDS011;57264;47.480;19.354;2023-05-19T17:38:35;4.63;;;3.17;;
44696;SDS011;57264;47.480;19.354;2023-05-19T17:41:04;6.97;;;3.10;;
44696;SDS011;57264;47.480;19.354;2023-05-19T17:43:37;7.67;;;3.17;;
44696;SDS011;57264;47.480;19.354;2023-05-19T17:46:03;4.30;;;3.10;;
44696;SDS011;57264;47.480;19.354;2023-05-19T17:48:30;3.20;;;2.90;;
44696;SDS011;57264;47.480;19.354;2023-05-19T17:50:56;11.03;;;3.63;;
44696;SDS011;57264;47.480;19.354;2023-05-19T17:53:22;5.93;;;3.43;;
44696;SDS011;57264;47.480;19.354;2023-05-19T17:55:51;13.40;;;3.57;;
44696;SDS011;57264;47.480;19.354;2023-05-19T17:58:21;13.17;;;3.60;;
44696;SDS011;57264;47.480;19.354;2023-05-19T18:00:47;8.07;;;3.40;;
44696;SDS011;57264;47.480;19.354;2023-05-19T18:03:13;5.67;;;3.73;;
44696;SDS011;57264;47.480;19.354;2023-05-19T18:05:39;11.00;;;3.67;;
44696;SDS011;57264;47.480;19.354;2023-05-19T18:08:07;6.03;;;3.47;;
44696;SDS011;57264;47.480;19.354;2023-05-19T18:10:37;6.53;;;3.60;;
44696;SDS011;57264;47.480;19.354;2023-05-19T18:13:04;10.03;;;4.10;;
44696;SDS011;57264;47.480;19.354;2023-05-19T18:15:30;5.57;;;3.20;;
44696;SDS011;57264;47.480;19.354;2023-05-19T18:17:56;5.43;;;3.37;;
44696;SDS011;57264;47.480;19.354;2023-05-19T18:20:21;6.73;;;3.50;;
44696;SDS011;57264;47.480;19.354;2023-05-19T18:22:50;6.53;;;3.60;;
44696;SDS011;57264;47.480;19.354;2023-05-19T18:25:15;6.10;;;3.50;;
44696;SDS011;57264;47.480;19.354;2023-05-19T18:27:43;9.07;;;4.17;;
44696;SDS011;57264;47.480;19.354;2023-05-19T18:30:09;5.70;;;3.77;;
44696;SDS011;57264;47.480;19.354;2023-05-19T18:32:35;6.83;;;3.80;;
44696;SDS011;57264;47.480;19.354;2023-05-19T18:35:00;4.53;;;3.57;;
44696;SDS011;57264;47.480;19.354;2023-05-19T18:37:26;3.93;;;3.57;;
44696;SDS011;57264;47.480;19.354;2023-05-19T18:39:54;4.27;;;3.90;;
44696;SDS011;57264;47.480;19.354;2023-05-19T18:42:20;4.40;;;3.73;;
44696;SDS011;57264;47.480;19.354;2023-05-19T18:44:46;3.80;;;3.50;;
44696;SDS011;57264;47.480;19.354;2023-05-19T18:47:12;4.03;;;3.70;;
44696;SDS011;57264;47.480;19.354;2023-05-19T18:49:38;4.33;;;3.93;;
44696;SDS011;57264;47.480;19.354;2023-05-19T18:52:07;4.50;;;3.60;;
44696;SDS011;57264;47.480;19.354;2023-05-19T18:54:34;5.70;;;4.10;;
44696;SDS011;57264;47.480;19.354;2023-05-19T18:56:59;4.03;;;3.63;;
44696;SDS011;57264;47.480;19.354;2023-05-19T18:59:27;6.43;;;4.30;;
44696;SDS011;57264;47.480;19.354;2023-05-19T19:01:52;7.73;;;4.27;;
44696;SDS011;57264;47.480;19.354;2023-05-19T19:04:18;6.77;;;4.17;;
44696;SDS011;57264;47.480;19.354;2023-05-19T19:06:46;6.57;;;3.80;;
44696;SDS011;57264;47.480;19.354;2023-05-19T19:09:12;10.23;;;4.17;;
44696;SDS011;57264;47.480;19.354;2023-05-19T19:11:38;7.97;;;4.40;;
44696;SDS011;57264;47.480;19.354;2023-05-19T19:14:03;4.73;;;4.07;;
44696;SDS011;57264;47.480;19.354;2023-05-19T19:16:29;6.97;;;4.20;;
44696;SDS011;57264;47.480;19.354;2023-05-19T19:18:54;6.10;;;4.40;;
44696;SDS011;57264;47.480;19.354;2023-05-19T19:21:20;4.77;;;4.10;;
44696;SDS011;57264;47.480;19.354;2023-05-19T19:23:48;4.17;;;3.80;;
44696;SDS011;57264;47.480;19.354;2023-05-19T19:26:14;5.50;;;4.47;;
44696;SDS011;57264;47.480;19.354;2023-05-19T19:28:40;4.43;;;4.00;;
44696;SDS011;57264;47.480;19.354;2023-05-19T19:31:05;7.57;;;3.97;;
44696;SDS011;57264;47.480;19.354;2023-05-19T19:33:31;5.50;;;4.20;;
44696;SDS011;57264;47.480;19.354;2023-05-19T19:35:56;8.37;;;4.23;;
44696;SDS011;57264;47.480;19.354;2023-05-19T19:38:22;6.03;;;4.30;;
44696;SDS011;57264;47.480;19.354;2023-05-19T19:40:49;7.73;;;4.33;;
44696;SDS011;57264;47.480;19.354;2023-05-19T19:43:16;6.00;;;4.17;;
44696;SDS011;57264;47.480;19.354;2023-05-19T19:45:41;7.27;;;4.23;;
44696;SDS011;57264;47.480;19.354;2023-05-19T19:48:07;7.70;;;4.33;;
44696;SDS011;57264;47.480;19.354;2023-05-19T19:50:32;5.00;;;4.20;;
44696;SDS011;57264;47.480;19.354;2023-05-19T19:52:58;6.27;;;4.97;;
44696;SDS011;57264;47.480;19.354;2023-05-19T19:55:24;5.77;;;4.60;;
44696;SDS011;57264;47.480;19.354;2023-05-19T19:57:51;8.87;;;4.97;;
44696;SDS011;57264;47.480;19.354;2023-05-19T20:00:17;5.17;;;4.67;;
44696;SDS011;57264;47.480;19.354;2023-05-19T20:02:43;8.60;;;4.67;;
44696;SDS011;57264;47.480;19.354;2023-05-19T20:05:09;5.97;;;4.33;;
44696;SDS011;57264;47.480;19.354;2023-05-19T20:07:35;8.50;;;4.70;;
44696;SDS011;57264;47.480;19.354;2023-05-19T20:10:01;4.63;;;4.07;;
44696;SDS011;57264;47.480;19.354;2023-05-19T20:12:35;8.97;;;4.33;;
44696;SDS011;57264;47.480;19.354;2023-05-19T20:15:01;6.53;;;4.37;;
44696;SDS011;57264;47.480;19.354;2023-05-19T20:17:26;5.07;;;4.10;;
44696;SDS011;57264;47.480;19.354;2023-05-19T20:19:52;6.33;;;4.40;;
44696;SDS011;57264;47.480;19.354;2023-05-19T20:22:18;6.37;;;5.10;;
44696;SDS011;57264;47.480;19.354;2023-05-19T20:24:44;5.17;;;4.00;;
44696;SDS011;57264;47.480;19.354;2023-05-19T20:27:10;6.00;;;4.23;;
44696;SDS011;57264;47.480;19.354;2023-05-19T20:29:36;5.03;;;4.60;;
44696;SDS011;57264;47.480;19.354;2023-05-19T20:32:02;5.23;;;4.47;;
44696;SDS011;57264;47.480;19.354;2023-05-19T20:34:28;9.47;;;3.93;;
44696;SDS011;57264;47.480;19.354;2023-05-19T20:36:53;9.70;;;4.90;;
44696;SDS011;57264;47.480;19.354;2023-05-19T20:39:19;6.50;;;4.00;;
44696;SDS011;57264;47.480;19.354;2023-05-19T20:41:44;4.27;;;3.87;;
44696;SDS011;57264;47.480;19.354;2023-05-19T20:44:10;7.23;;;3.93;;
44696;SDS011;57264;47.480;19.354;2023-05-19T20:46:35;4.73;;;4.13;;
44696;SDS011;57264;47.480;19.354;2023-05-19T20:49:01;6.70;;;4.40;;
44696;SDS011;57264;47.480;19.354;2023-05-19T20:51:27;7.23;;;4.07;;
44696;SDS011;57264;47.480;19.354;2023-05-19T20:53:52;7.77;;;4.23;;
44696;SDS011;57264;47.480;19.354;2023-05-19T20:56:18;7.83;;;4.40;;
44696;SDS011;57264;47.480;19.354;2023-05-19T20:58:44;9.77;;;4.77;;
44696;SDS011;57264;47.480;19.354;2023-05-19T21:01:10;9.50;;;4.87;;
44696;SDS011;57264;47.480;19.354;2023-05-19T21:03:35;4.80;;;4.10;;
44696;SDS011;57264;47.480;19.354;2023-05-19T21:06:01;6.03;;;4.80;;
44696;SDS011;57264;47.480;19.354;2023-05-19T21:08:27;7.07;;;4.47;;
44696;SDS011;57264;47.480;19.354;2023-05-19T21:10:53;6.13;;;4.33;;
44696;SDS011;57264;47.480;19.354;2023-05-19T21:13:19;4.50;;;3.77;;
44696;SDS011;57264;47.480;19.354;2023-05-19T21:15:45;4.60;;;4.20;;
44696;SDS011;57264;47.480;19.354;2023-05-19T21:18:10;7.07;;;4.63;;
44696;SDS011;57264;47.480;19.354;2023-05-19T21:20:36;6.07;;;4.23;;
44696;SDS011;57264;47.480;19.354;2023-05-19T21:23:02;6.80;;;3.37;;
44696;SDS011;57264;47.480;19.354;2023-05-19T21:25:28;5.20;;;3.90;;
44696;SDS011;57264;47.480;19.354;2023-05-19T21:27:55;5.00;;;3.90;;
44696;SDS011;57264;47.480;19.354;2023-05-19T21:30:22;7.67;;;4.80;;
44696;SDS011;57264;47.480;19.354;2023-05-19T21:32:48;4.23;;;3.83;;
44696;SDS011;57264;47.480;19.354;2023-05-19T21:35:13;7.63;;;4.33;;
44696;SDS011;57264;47.480;19.354;2023-05-19T21:37:39;5.67;;;4.10;;
44696;SDS011;57264;47.480;19.354;2023-05-19T21:40:05;6.03;;;3.80;;
44696;SDS011;57264;47.480;19.354;2023-05-19T21:42:32;5.83;;;4.00;;
44696;SDS011;57264;47.480;19.354;2023-05-19T21:44:58;6.70;;;4.20;;
44696;SDS011;57264;47.480;19.354;2023-05-19T21:47:23;4.63;;;4.20;;
44696;SDS011;57264;47.480;19.354;2023-05-19T21:49:48;4.87;;;4.17;;
44696;SDS011;57264;47.480;19.354;2023-05-19T21:52:14;6.00;;;4.97;;
44696;SDS011;57264;47.480;19.354;2023-05-19T21:54:40;6.97;;;4.27;;
44696;SDS011;57264;47.480;19.354;2023-05-19T21:57:05;8.43;;;4.20;;
44696;SDS011;57264;47.480;19.354;2023-05-19T21:59:30;7.57;;;4.93;;
44696;SDS011;57264;47.480;19.354;2023-05-19T22:01:56;6.17;;;4.43;;
44696;SDS011;57264;47.480;19.354;2023-05-19T22:04:22;5.60;;;4.50;;
44696;SDS011;57264;47.480;19.354;2023-05-19T22:06:47;6.97;;;4.40;;
44696;SDS011;57264;47.480;19.354;2023-05-19T22:09:13;5.97;;;5.37;;
44696;SDS011;57264;47.480;19.354;2023-05-19T22:11:38;6.27;;;5.67;;
44696;SDS011;57264;47.480;19.354;2023-05-19T22:14:04;5.80;;;5.10;;
44696;SDS011;57264;47.480;19.354;2023-05-19T22:16:29;9.70;;;5.83;;
44696;SDS011;57264;47.480;19.354;2023-05-19T22:18:55;5.47;;;4.97;;
44696;SDS011;57264;47.480;19.354;2023-05-19T22:21:21;6.97;;;5.00;;
44696;SDS011;57264;47.480;19.354;2023-05-19T22:23:46;7.43;;;5.30;;
44696;SDS011;57264;47.480;19.354;2023-05-19T22:26:12;5.83;;;4.93;;
44696;SDS011;57264;47.480;19.354;2023-05-19T22:28:37;6.13;;;5.37;;
44696;SDS011;57264;47.480;19.354;2023-05-19T22:31:03;6.23;;;5.63;;
44696;SDS011;57264;47.480;19.354;2023-05-19T22:33:29;9.97;;;6.47;;
44696;SDS011;57264;47.480;19.354;2023-05-19T22:35:55;7.50;;;5.53;;
44696;SDS011;57264;47.480;19.354;2023-05-19T22:38:21;6.13;;;5.53;;
44696;SDS011;57264;47.480;19.354;2023-05-19T22:40:46;7.17;;;6.47;;
44696;SDS011;57264;47.480;19.354;2023-05-19T22:43:15;12.77;;;6.23;;
44696;SDS011;57264;47.480;19.354;2023-05-19T22:45:40;7.40;;;6.17;;
44696;SDS011;57264;47.480;19.354;2023-05-19T22:48:08;7.73;;;6.60;;
44696;SDS011;57264;47.480;19.354;2023-05-19T22:50:34;7.77;;;6.30;;
44696;SDS011;57264;47.480;19.354;2023-05-19T22:52:59;8.13;;;6.30;;
44696;SDS011;57264;47.480;19.354;2023-05-19T22:55:25;8.07;;;6.67;;
44696;SDS011;57264;47.480;19.354;2023-05-19T22:57:51;9.40;;;7.17;;
44696;SDS011;57264;47.480;19.354;2023-05-19T23:00:16;9.10;;;7.30;;
44696;SDS011;57264;47.480;19.354;2023-05-19T23:02:45;8.50;;;7.57;;
44696;SDS011;57264;47.480;19.354;2023-05-19T23:05:11;8.40;;;7.60;;
44696;SDS011;57264;47.480;19.354;2023-05-19T23:07:36;12.43;;;8.53;;
44696;SDS011;57264;47.480;19.354;2023-05-19T23:10:02;10.47;;;8.33;;
44696;SDS011;57264;47.480;19.354;2023-05-19T23:12:29;11.13;;;8.60;;
44696;SDS011;57264;47.480;19.354;2023-05-19T23:14:55;10.30;;;8.67;;
44696;SDS011;57264;47.480;19.354;2023-05-19T23:17:21;15.77;;;8.17;;
44696;SDS011;57264;47.480;19.354;2023-05-19T23:19:46;11.43;;;8.40;;
44696;SDS011;57264;47.480;19.354;2023-05-19T23:22:12;8.77;;;7.13;;
44696;SDS011;57264;47.480;19.354;2023-05-19T23:24:37;13.20;;;8.13;;
44696;SDS011;57264;47.480;19.354;2023-05-19T23:27:03;11.83;;;8.50;;
44696;SDS011;57264;47.480;19.354;2023-05-19T23:29:29;9.27;;;8.10;;
44696;SDS011;57264;47.480;19.354;2023-05-19T23:31:55;10.63;;;8.70;;
44696;SDS011;57264;47.480;19.354;2023-05-19T23:34:21;10.63;;;8.37;;
44696;SDS011;57264;47.480;19.354;2023-05-19T23:36:47;12.73;;;8.93;;
44696;SDS011;57264;47.480;19.354;2023-05-19T23:39:12;11.90;;;8.77;;
44696;SDS011;57264;47.480;19.354;2023-05-19T23:41:38;9.40;;;8.50;;
44696;SDS011;57264;47.480;19.354;2023-05-19T23:44:03;13.50;;;8.50;;
44696;SDS011;57264;47.480;19.354;2023-05-19T23:46:29;9.40;;;8.50;;
44696;SDS011;57264;47.480;19.354;2023-05-19T23:48:54;10.90;;;8.97;;
44696;SDS011;57264;47.480;19.354;2023-05-19T23:51:20;10.00;;;8.90;;
44696;SDS011;57264;47.480;19.354;2023-05-19T23:53:45;9.90;;;8.83;;
44696;SDS011;57264;47.480;19.354;2023-05-19T23:56:11;10.03;;;9.03;;
44696;SDS011;57264;47.480;19.354;2023-05-19T23:58:36;12.07;;;9.53;;
